Time;durP1;ratioP1;P1;durP2;ratioP2;P2;SDS_P1;SDS_P2;PMS_P1;PMS_P2;Temp;Humidity;BMP_temperature;BMP_pressure;BME280_temperature;BME280_humidity;BME280_pressure;Samples;Min_cycle;Max_cycle;Signal;HPM_P1;HPM_P2
2022/07/19 00:00:20;;;;;;;3.67;2.90;;;20.90;99.90;;;;;;5088072;28;20202;-58
2022/07/19 00:02:48;;;;;;;3.50;3.17;;;20.90;99.90;;;;;;5089697;28;20201;-59
2022/07/19 00:05:17;;;;;;;7.97;3.10;;;20.80;99.90;;;;;;5089457;28;20270;-59
2022/07/19 00:07:46;;;;;;;3.50;2.80;;;20.80;99.90;;;;;;5087681;28;20234;-58
2022/07/19 00:10:16;;;;;;;3.10;2.77;;;20.80;99.90;;;;;;5087996;28;20192;-58
2022/07/19 00:12:45;;;;;;;4.03;2.83;;;20.80;99.90;;;;;;5087990;28;20282;-59
2022/07/19 00:15:16;;;;;;;2.70;2.50;;;20.70;99.90;;;;;;5068807;28;20283;-58
2022/07/19 00:17:47;;;;;;;3.30;3.00;;;20.70;99.90;;;;;;5078598;28;20505;-58
2022/07/19 00:20:18;;;;;;;2.80;2.60;;;20.70;99.90;;;;;;5075696;28;20254;-58
2022/07/19 00:22:46;;;;;;;3.50;3.20;;;20.70;99.90;;;;;;5074405;28;20279;-59
2022/07/19 00:25:15;;;;;;;3.13;2.77;;;20.60;99.90;;;;;;5057897;28;20196;-59
2022/07/19 00:27:43;;;;;;;4.30;2.80;;;20.60;99.90;;;;;;5075384;28;20619;-59
2022/07/19 00:30:12;;;;;;;2.80;2.70;;;20.50;99.90;;;;;;5065981;28;20236;-58
2022/07/19 00:32:42;;;;;;;3.40;3.20;;;20.50;99.90;;;;;;5055598;28;20192;-58
2022/07/19 00:35:11;;;;;;;4.07;3.43;;;20.40;99.90;;;;;;5065705;28;20184;-58
2022/07/19 00:37:40;;;;;;;4.60;2.67;;;20.40;99.90;;;;;;5057687;28;20193;-59
2022/07/19 00:40:16;;;;;;;4.70;3.00;;;20.30;99.90;;;;;;5067501;28;20283;-58
2022/07/19 00:42:44;;;;;;;3.97;3.13;;;20.30;99.90;;;;;;5061553;28;20283;-59
2022/07/19 00:45:13;;;;;;;6.80;3.13;;;20.20;99.90;;;;;;5075324;28;20295;-59
2022/07/19 00:47:43;;;;;;;3.83;3.10;;;20.20;99.90;;;;;;5061462;28;20223;-59
2022/07/19 00:50:12;;;;;;;3.67;2.90;;;20.20;99.90;;;;;;5073440;28;20257;-58
2022/07/19 00:52:41;;;;;;;4.00;3.47;;;20.10;99.90;;;;;;5075119;28;20200;-58
2022/07/19 00:55:10;;;;;;;4.00;3.27;;;20.00;99.90;;;;;;5075121;28;20279;-59
2022/07/19 00:57:39;;;;;;;3.03;2.83;;;20.00;99.90;;;;;;5074878;28;20202;-58
2022/07/19 01:00:09;;;;;;;5.53;3.37;;;19.90;99.90;;;;;;5073441;28;20223;-58
2022/07/19 01:02:40;;;;;;;3.37;3.17;;;19.80;99.90;;;;;;5073481;28;20271;-58
2022/07/19 01:05:11;;;;;;;8.20;3.30;;;19.80;99.90;;;;;;5073981;28;20203;-59
2022/07/19 01:07:41;;;;;;;3.50;3.27;;;19.80;99.90;;;;;;5073766;28;20263;-59
2022/07/19 01:10:11;;;;;;;3.33;3.10;;;19.70;99.90;;;;;;5073854;28;20622;-59
2022/07/19 01:12:40;;;;;;;4.83;3.53;;;19.70;99.90;;;;;;5073721;28;20605;-58
2022/07/19 01:15:17;;;;;;;3.30;3.10;;;19.60;99.90;;;;;;5073800;28;20275;-58
2022/07/19 01:17:46;;;;;;;4.00;3.70;;;19.60;99.90;;;;;;5074575;28;20223;-58
2022/07/19 01:20:17;;;;;;;3.60;3.40;;;19.60;99.90;;;;;;5073431;28;20617;-58
2022/07/19 01:22:47;;;;;;;4.47;3.30;;;19.50;99.90;;;;;;5073450;28;20196;-59
2022/07/19 01:25:18;;;;;;;3.70;3.40;;;19.50;99.90;;;;;;5074688;28;20275;-58
2022/07/19 01:27:49;;;;;;;4.53;3.37;;;19.50;99.90;;;;;;5074340;28;20702;-59
2022/07/19 01:30:20;;;;;;;5.10;3.83;;;19.50;99.90;;;;;;5073587;28;20279;-58
2022/07/19 01:32:50;;;;;;;3.87;3.13;;;19.40;99.90;;;;;;5074434;28;20222;-58
2022/07/19 01:35:19;;;;;;;9.43;3.90;;;19.40;99.90;;;;;;5074530;28;20188;-58
2022/07/19 01:37:49;;;;;;;3.67;3.20;;;19.30;99.90;;;;;;5074327;28;20211;-58
2022/07/19 01:40:18;;;;;;;4.23;3.20;;;19.30;99.90;;;;;;5074071;28;20192;-58
2022/07/19 01:42:48;;;;;;;3.60;3.33;;;19.20;99.90;;;;;;5072586;28;20279;-58
2022/07/19 01:45:18;;;;;;;4.63;3.40;;;19.20;99.90;;;;;;5074257;28;20331;-58
2022/07/19 01:47:47;;;;;;;4.37;3.33;;;19.20;99.90;;;;;;5086203;28;20601;-59
2022/07/19 01:50:17;;;;;;;8.20;3.50;;;19.10;99.90;;;;;;5067929;28;20188;-57
2022/07/19 01:52:48;;;;;;;4.40;3.47;;;19.10;99.90;;;;;;5067798;28;20204;-58
2022/07/19 01:55:19;;;;;;;5.00;3.90;;;19.10;99.90;;;;;;5073932;28;20188;-58
2022/07/19 01:57:48;;;;;;;3.80;3.60;;;19.10;99.90;;;;;;5073775;28;20532;-57
2022/07/19 02:00:17;;;;;;;3.60;3.40;;;19.10;99.90;;;;;;5072626;28;20237;-58
2022/07/19 02:02:45;;;;;;;4.53;3.40;;;19.10;99.90;;;;;;5073684;28;20196;-60
2022/07/19 02:05:14;;;;;;;3.50;3.30;;;19.10;99.90;;;;;;5073874;28;20224;-58
2022/07/19 02:07:48;;;;;;;3.40;3.20;;;19.00;99.90;;;;;;5073379;28;20713;-58
2022/07/19 02:10:18;;;;;;;3.63;3.20;;;19.00;99.90;;;;;;5073790;28;20195;-58
2022/07/19 02:12:46;;;;;;;3.80;3.50;;;18.90;99.90;;;;;;5072219;28;20311;-58
2022/07/19 02:15:14;;;;;;;3.87;3.60;;;18.90;99.90;;;;;;5073344;28;20279;-58
2022/07/19 02:17:44;;;;;;;4.93;3.33;;;18.80;99.90;;;;;;5073387;28;20271;-58
2022/07/19 02:20:13;;;;;;;4.57;3.50;;;18.80;99.90;;;;;;5072097;28;20711;-58
2022/07/19 02:22:42;;;;;;;4.30;3.33;;;18.80;99.90;;;;;;5073139;28;20656;-58
2022/07/19 02:25:12;;;;;;;3.83;3.50;;;18.70;99.90;;;;;;5073466;28;20275;-58
2022/07/19 02:27:42;;;;;;;3.70;3.40;;;18.70;99.90;;;;;;5073315;28;20230;-58
2022/07/19 02:30:12;;;;;;;4.50;3.40;;;18.70;99.90;;;;;;5062507;28;20645;-59
2022/07/19 02:32:40;;;;;;;3.50;3.30;;;18.70;99.90;;;;;;5055807;28;20249;-58
2022/07/19 02:35:10;;;;;;;3.40;3.10;;;18.70;99.90;;;;;;5072629;28;20199;-59
2022/07/19 02:37:39;;;;;;;4.13;3.77;;;18.70;99.90;;;;;;5071347;28;20196;-59
2022/07/19 02:40:09;;;;;;;4.60;3.40;;;18.70;99.90;;;;;;5072874;28;20272;-58
2022/07/19 02:42:39;;;;;;;7.80;3.40;;;18.70;99.90;;;;;;5073093;28;20226;-59
2022/07/19 02:45:08;;;;;;;4.00;3.10;;;18.60;99.90;;;;;;5073042;28;20199;-59
2022/07/19 02:47:39;;;;;;;5.13;3.50;;;18.60;99.90;;;;;;5073010;28;20192;-59
2022/07/19 02:50:08;;;;;;;3.90;3.50;;;18.60;99.90;;;;;;5073056;28;20219;-58
2022/07/19 02:52:37;;;;;;;3.60;3.40;;;18.60;99.90;;;;;;5059999;28;20267;-59
2022/07/19 02:55:06;;;;;;;4.47;3.57;;;18.60;99.90;;;;;;5071906;28;20215;-59
2022/07/19 02:57:34;;;;;;;3.73;3.50;;;18.50;99.90;;;;;;5072944;28;20283;-59
2022/07/19 03:00:06;;;;;;;4.23;3.80;;;18.50;99.90;;;;;;5072993;28;20188;-59
2022/07/19 03:02:35;;;;;;;4.83;3.60;;;18.50;99.90;;;;;;5073022;28;20188;-58
2022/07/19 03:05:03;;;;;;;6.07;3.67;;;18.50;99.90;;;;;;5071594;28;20619;-58
2022/07/19 03:07:32;;;;;;;4.03;3.70;;;18.40;99.90;;;;;;5072634;28;20425;-59
2022/07/19 03:10:00;;;;;;;6.33;3.60;;;18.40;99.90;;;;;;5073093;28;20297;-58
2022/07/19 03:12:29;;;;;;;5.13;3.83;;;18.30;99.90;;;;;;5072951;28;20271;-58
2022/07/19 03:14:57;;;;;;;3.87;3.37;;;18.30;99.90;;;;;;5073060;28;20326;-59
2022/07/19 03:17:27;;;;;;;6.03;3.70;;;18.30;99.90;;;;;;5105605;28;20196;-59
2022/07/19 03:19:55;;;;;;;4.50;4.10;;;18.30;99.90;;;;;;5072788;28;20712;-58
2022/07/19 03:22:24;;;;;;;3.63;3.40;;;18.20;99.90;;;;;;5071787;28;20198;-58
2022/07/19 03:24:52;;;;;;;4.63;3.80;;;18.20;99.90;;;;;;5072628;28;20192;-58
2022/07/19 03:27:21;;;;;;;4.40;3.70;;;18.20;99.90;;;;;;5072821;28;20196;-58
2022/07/19 03:29:49;;;;;;;4.07;3.77;;;18.20;99.90;;;;;;5072712;28;20219;-58
2022/07/19 03:32:18;;;;;;;5.60;3.67;;;18.20;99.90;;;;;;5072793;28;20258;-59
2022/07/19 03:34:48;;;;;;;6.87;3.90;;;18.20;99.90;;;;;;5072716;28;20617;-58
2022/07/19 03:37:16;;;;;;;3.80;3.50;;;18.10;99.90;;;;;;5072589;28;20200;-58
2022/07/19 03:39:45;;;;;;;4.23;3.60;;;18.10;99.90;;;;;;5071442;28;20286;-59
2022/07/19 03:42:13;;;;;;;7.73;3.57;;;18.10;99.90;;;;;;5071021;28;20626;-58
2022/07/19 03:44:42;;;;;;;3.87;3.57;;;18.10;99.90;;;;;;5072520;28;20196;-58
2022/07/19 03:47:10;;;;;;;3.73;3.40;;;18.00;99.90;;;;;;5071414;28;20284;-59
2022/07/19 03:49:39;;;;;;;7.27;3.77;;;18.00;99.90;;;;;;5072446;28;20618;-59
2022/07/19 03:52:08;;;;;;;3.90;3.70;;;18.00;99.90;;;;;;5072377;28;20271;-58
2022/07/19 03:54:45;;;;;;;7.53;3.47;;;18.00;99.90;;;;;;5056040;28;20193;-59
2022/07/19 03:57:13;;;;;;;4.23;4.03;;;17.90;99.90;;;;;;5074335;28;20287;-58
2022/07/19 03:59:42;;;;;;;7.90;4.37;;;17.90;99.90;;;;;;5076285;28;20188;-59
2022/07/19 04:02:10;;;;;;;4.13;3.87;;;17.90;99.90;;;;;;5064579;28;20224;-59
2022/07/19 04:05:16;;;;;;;4.63;3.80;;;17.90;99.90;;;;;;5056313;28;20248;-59
2022/07/19 04:08:02;;;;;;;4.27;3.77;;;17.90;99.90;;;;;;5071504;28;20199;-59
2022/07/19 04:10:30;;;;;;;4.30;4.00;;;17.90;99.90;;;;;;5056127;28;20255;-58
2022/07/19 04:12:59;;;;;;;4.27;3.97;;;17.90;99.90;;;;;;5056586;28;20215;-59
2022/07/19 04:15:27;;;;;;;6.30;3.53;;;17.90;99.90;;;;;;5075834;28;20186;-58
2022/07/19 04:17:55;;;;;;;4.03;3.70;;;17.90;99.90;;;;;;5075732;28;20227;-58
2022/07/19 04:20:24;;;;;;;4.00;3.67;;;17.90;99.90;;;;;;5074700;28;20192;-59
2022/07/19 04:22:53;;;;;;;8.03;4.07;;;18.00;99.90;;;;;;5074534;28;20329;-58
2022/07/19 04:25:23;;;;;;;5.47;4.00;;;18.00;99.90;;;;;;5075755;28;20242;-58
2022/07/19 04:27:51;;;;;;;4.27;3.93;;;18.10;99.90;;;;;;5075575;28;20280;-58
2022/07/19 04:30:20;;;;;;;6.63;3.80;;;18.10;99.90;;;;;;5075780;28;20214;-58
2022/07/19 04:32:51;;;;;;;3.90;3.63;;;18.20;99.90;;;;;;5075844;28;20192;-59
2022/07/19 04:35:20;;;;;;;4.43;3.93;;;18.30;99.90;;;;;;5074019;28;20195;-59
2022/07/19 04:37:48;;;;;;;4.20;3.70;;;18.30;99.90;;;;;;5075462;28;20216;-59
2022/07/19 04:40:17;;;;;;;9.50;4.20;;;18.40;99.90;;;;;;5075530;28;20188;-59
2022/07/19 04:42:47;;;;;;;3.80;3.30;;;18.50;99.90;;;;;;5075486;28;20283;-58
2022/07/19 04:45:15;;;;;;;6.60;3.57;;;18.50;99.90;;;;;;5075218;28;20659;-59
2022/07/19 04:47:44;;;;;;;4.33;3.70;;;18.60;99.90;;;;;;5055411;28;20284;-59
2022/07/19 04:50:12;;;;;;;7.73;3.93;;;18.70;99.90;;;;;;5055220;28;20248;-58
2022/07/19 04:52:40;;;;;;;5.20;3.90;;;18.70;99.90;;;;;;5062413;28;20654;-58
2022/07/19 04:55:09;;;;;;;5.73;3.97;;;18.80;99.90;;;;;;5075141;28;20222;-58
2022/07/19 04:57:38;;;;;;;3.80;3.50;;;18.80;99.90;;;;;;5075017;28;20191;-58
2022/07/19 05:00:12;;;;;;;3.70;3.50;;;18.90;99.90;;;;;;5075131;28;20275;-59
2022/07/19 05:02:43;;;;;;;4.30;3.90;;;18.90;99.90;;;;;;5074974;28;20241;-58
2022/07/19 05:05:13;;;;;;;7.43;3.70;;;19.00;99.90;;;;;;5073531;28;20228;-58
2022/07/19 05:07:44;;;;;;;8.37;3.77;;;19.20;99.90;;;;;;5075011;28;20833;-59
2022/07/19 05:10:12;;;;;;;5.13;3.60;;;19.40;99.90;;;;;;5074878;28;20216;-58
2022/07/19 05:12:43;;;;;;;6.07;3.67;;;19.50;99.90;;;;;;5075115;28;20224;-59
2022/07/19 05:15:13;;;;;;;4.37;3.93;;;19.70;99.90;;;;;;5074831;28;20202;-56
2022/07/19 05:17:43;;;;;;;8.23;3.80;;;19.80;99.90;;;;;;5074789;28;20584;-59
2022/07/19 05:20:16;;;;;;;4.50;3.90;;;20.00;99.90;;;;;;5074605;28;20275;-58
2022/07/19 05:22:44;;;;;;;3.90;3.57;;;20.10;99.90;;;;;;5074702;28;20207;-59
2022/07/19 05:25:16;;;;;;;8.53;3.90;;;20.30;99.90;;;;;;5073321;28;20283;-59
2022/07/19 05:27:45;;;;;;;6.67;3.90;;;20.50;99.90;;;;;;5074385;28;20692;-56
2022/07/19 05:30:14;;;;;;;7.37;4.00;;;20.70;99.90;;;;;;5074206;28;20290;-59
2022/07/19 05:32:43;;;;;;;4.53;3.30;;;20.90;99.90;;;;;;5074285;28;20271;-59
2022/07/19 05:35:11;;;;;;;4.60;3.13;;;21.10;99.90;;;;;;5074194;28;20196;-59
2022/07/19 05:37:40;;;;;;;6.10;3.30;;;21.40;99.90;;;;;;5074152;28;20192;-58
2022/07/19 05:40:09;;;;;;;6.07;3.30;;;21.70;99.90;;;;;;5073953;28;20219;-58
2022/07/19 05:42:38;;;;;;;6.63;3.13;;;21.90;99.90;;;;;;5072943;28;20200;-59
2022/07/19 05:45:07;;;;;;;3.80;3.50;;;22.10;99.90;;;;;;5073989;28;20275;-59
2022/07/19 05:47:36;;;;;;;7.20;3.27;;;22.30;99.90;;;;;;5054798;28;20205;-59
2022/07/19 05:50:06;;;;;;;6.07;2.80;;;22.60;99.90;;;;;;5099642;28;20311;-58
2022/07/19 05:52:34;;;;;;;3.67;2.70;;;22.80;99.90;;;;;;5073926;28;20279;-57
2022/07/19 05:55:06;;;;;;;10.00;3.20;;;23.20;99.90;;;;;;5074015;28;20196;-58
2022/07/19 05:57:34;;;;;;;8.83;3.23;;;23.40;99.90;;;;;;5073747;28;20193;-59
2022/07/19 06:00:04;;;;;;;2.70;2.50;;;23.70;99.90;;;;;;5073691;28;20194;-59
2022/07/19 06:02:33;;;;;;;5.00;2.50;;;23.80;99.90;;;;;;5073936;28;20198;-59
2022/07/19 06:05:03;;;;;;;5.87;2.77;;;24.00;99.90;;;;;;5073770;28;20211;-59
2022/07/19 06:07:31;;;;;;;14.60;2.87;;;24.30;99.90;;;;;;5073489;28;20658;-59
2022/07/19 06:10:01;;;;;;;3.53;2.70;;;24.40;99.90;;;;;;5060212;28;20217;-59
2022/07/19 06:12:32;;;;;;;3.97;2.80;;;24.60;99.90;;;;;;5073619;28;20182;-59
2022/07/19 06:15:38;;;;;;;3.90;2.43;;;24.80;99.90;;;;;;5073334;28;20205;-59
2022/07/19 06:18:08;;;;;;;5.90;2.80;;;25.00;99.90;;;;;;5073231;28;20662;-56
2022/07/19 06:20:38;;;;;;;4.37;2.60;;;25.20;99.90;;;;;;5073336;28;20247;-58
2022/07/19 06:23:06;;;;;;;5.93;2.83;;;25.50;99.90;;;;;;5073252;28;20280;-57
2022/07/19 06:25:35;;;;;;;2.80;2.60;;;25.70;99.90;;;;;;5071767;28;20192;-57
2022/07/19 06:28:03;;;;;;;8.53;2.77;;;25.90;99.90;;;;;;5073282;28;20247;-59
2022/07/19 06:30:31;;;;;;;4.57;2.60;;;26.10;99.90;;;;;;5072975;28;20216;-57
2022/07/19 06:33:00;;;;;;;7.50;3.20;;;26.40;99.90;;;;;;5073067;28;20191;-57
2022/07/19 06:35:28;;;;;;;7.90;2.93;;;26.60;99.90;;;;;;5071914;28;20238;-57
2022/07/19 06:37:58;;;;;;;3.67;2.60;;;26.80;99.90;;;;;;5060154;28;20199;-57
2022/07/19 06:40:27;;;;;;;7.17;2.80;;;27.00;99.90;;;;;;5062254;28;20192;-57
2022/07/19 06:42:55;;;;;;;6.72;2.60;;;27.20;99.90;;;;;;5062149;28;20286;-58
2022/07/19 06:45:24;;;;;;;5.97;2.50;;;27.50;99.90;;;;;;5058452;28;20192;-58
2022/07/19 06:47:52;;;;;;;6.18;2.50;;;27.90;99.90;;;;;;5068695;28;20194;-57
2022/07/19 06:50:23;;;;;;;5.03;2.63;;;28.10;99.90;;;;;;5056845;28;20245;-57
2022/07/19 06:53:10;;;;;;;2.60;2.40;;;28.20;99.90;;;;;;5063630;28;20200;-57
2022/07/19 06:55:39;;;;;;;2.90;2.70;;;28.50;99.90;;;;;;5064424;28;20750;-57
2022/07/19 06:58:07;;;;;;;2.97;2.63;;;28.70;99.90;;;;;;5063512;28;20290;-58
2022/07/19 07:00:36;;;;;;;5.78;2.78;;;28.90;99.90;;;;;;5072483;28;20220;-57
2022/07/19 07:03:04;;;;;;;8.55;3.03;;;29.00;99.90;;;;;;5059892;28;20556;-57
2022/07/19 07:05:33;;;;;;;4.05;2.50;;;29.10;99.90;;;;;;5052684;28;20228;-58
2022/07/19 07:08:02;;;;;;;11.85;3.50;;;29.30;99.90;;;;;;5024780;28;20293;-58
2022/07/19 07:10:32;;;;;;;6.70;2.90;;;29.50;99.90;;;;;;5020127;28;20695;-58
2022/07/19 07:13:00;;;;;;;8.48;2.95;;;29.90;99.90;;;;;;5032920;28;20193;-58
2022/07/19 07:15:29;;;;;;;8.00;3.17;;;30.10;99.90;;;;;;5032618;28;20234;-57
2022/07/19 07:17:57;;;;;;;5.00;2.60;;;30.30;99.90;;;;;;5030870;28;20280;-57
2022/07/19 07:20:25;;;;;;;7.30;2.67;;;30.50;99.90;;;;;;5020518;28;20277;-58
2022/07/19 07:22:54;;;;;;;7.50;3.00;;;30.70;99.90;;;;;;5016813;28;20273;-57
2022/07/19 07:25:22;;;;;;;4.22;2.63;;;30.90;99.90;;;;;;5021812;28;20194;-57
2022/07/19 07:27:52;;;;;;;8.20;2.67;;;31.00;99.90;;;;;;5019976;28;20284;-58
2022/07/19 07:30:20;;;;;;;5.55;2.78;;;31.30;99.90;;;;;;5036527;28;20680;-58
2022/07/19 07:32:49;;;;;;;5.78;2.88;;;31.60;99.90;;;;;;5023365;28;20280;-58
2022/07/19 07:35:17;;;;;;;5.13;2.90;;;31.50;99.90;;;;;;5025492;28;20283;-58
2022/07/19 07:37:45;;;;;;;7.28;2.85;;;31.90;99.90;;;;;;5032888;28;20711;-57
2022/07/19 07:40:14;;;;;;;2.63;2.40;;;32.20;99.90;;;;;;5024875;28;20206;-58
2022/07/19 07:42:42;;;;;;;6.68;2.63;;;32.60;99.90;;;;;;5033443;28;20255;-58
2022/07/19 07:45:14;;;;;;;4.90;2.63;;;32.60;99.90;;;;;;5034722;28;20713;-57
2022/07/19 07:47:45;;;;;;;8.15;2.67;;;32.90;99.90;;;;;;5036212;28;20202;-57
2022/07/19 07:50:13;;;;;;;5.22;2.75;;;33.30;99.90;;;;;;5035429;28;20201;-58
2022/07/19 07:52:41;;;;;;;8.10;2.65;;;33.50;99.90;;;;;;5023448;28;20213;-58
2022/07/19 07:55:10;;;;;;;5.10;2.47;;;33.70;99.90;;;;;;5034602;28;20722;-57
2022/07/19 07:58:00;;;;;;;4.90;2.65;;;33.90;99.90;;;;;;5025365;28;20301;-58
2022/07/19 08:00:30;;;;;;;4.53;2.63;;;34.10;99.90;;;;;;5033725;28;20739;-57
2022/07/19 08:02:58;;;;;;;3.88;2.40;;;34.10;99.90;;;;;;5022810;28;20293;-58
2022/07/19 08:05:27;;;;;;;4.20;2.28;;;34.60;99.90;;;;;;5015988;28;20199;-58
2022/07/19 08:07:56;;;;;;;3.17;2.85;;;34.90;99.90;;;;;;5057419;28;21034;-60
2022/07/19 08:10:31;;;;;;;6.13;2.90;;;35.40;99.90;;;;;;5054019;28;20193;-58
2022/07/19 08:12:59;;;;;;;7.65;2.88;;;35.20;99.30;;;;;;5069332;28;20675;-58
2022/07/19 08:15:36;;;;;;;5.32;2.90;;;35.40;99.60;;;;;;5065749;28;20199;-59
2022/07/19 08:18:05;;;;;;;10.57;2.78;;;36.20;98.90;;;;;;5073196;28;20196;-59
2022/07/19 08:20:34;;;;;;;4.30;2.42;;;36.60;98.70;;;;;;5074534;28;20197;-58
2022/07/19 08:23:02;;;;;;;4.75;2.60;;;36.70;97.00;;;;;;5070191;28;20284;-58
2022/07/19 08:25:32;;;;;;;5.47;2.80;;;36.60;97.40;;;;;;5053677;28;20197;-58
2022/07/19 08:28:00;;;;;;;3.05;2.70;;;36.70;97.20;;;;;;5073042;28;20280;-58
2022/07/19 08:30:29;;;;;;;7.30;2.60;;;37.00;97.90;;;;;;5075060;28;20275;-59
2022/07/19 08:33:18;;;;;;;2.80;2.60;;;37.60;96.20;;;;;;5062606;28;20188;-59
2022/07/19 08:35:47;;;;;;;8.00;2.60;;;37.50;96.30;;;;;;5075049;28;20283;-60
2022/07/19 08:38:23;;;;;;;9.73;2.67;;;37.90;96.20;;;;;;5074902;28;20658;-59
2022/07/19 08:40:55;;;;;;;6.88;2.80;;;38.10;95.20;;;;;;5074707;28;20192;-59
2022/07/19 08:43:23;;;;;;;2.80;2.60;;;38.00;94.80;;;;;;5075035;28;20193;-59
2022/07/19 08:45:52;;;;;;;6.93;2.80;;;38.40;94.80;;;;;;5074539;28;20200;-60
2022/07/19 08:48:22;;;;;;;6.43;2.42;;;38.60;94.00;;;;;;5074810;28;20258;-59
2022/07/19 08:50:52;;;;;;;4.47;2.85;;;38.90;93.00;;;;;;5073034;28;20608;-61
2022/07/19 08:53:22;;;;;;;5.63;2.53;;;39.10;93.10;;;;;;5073112;28;20204;-63
2022/07/19 08:55:51;;;;;;;4.97;2.67;;;39.70;93.00;;;;;;5053602;28;20231;-57
2022/07/19 08:58:18;;;;;;;5.85;2.95;;;40.10;92.50;;;;;;5068382;28;20199;-57
2022/07/19 09:00:47;;;;;;;7.93;2.97;;;39.90;91.70;;;;;;5068310;28;20239;-57
2022/07/19 09:03:15;;;;;;;5.95;2.80;;;39.80;90.60;;;;;;5068926;28;20193;-57
2022/07/19 09:05:45;;;;;;;5.07;2.50;;;39.80;90.00;;;;;;5074874;28;20286;-57
2022/07/19 09:08:16;;;;;;;5.78;2.97;;;39.90;88.80;;;;;;5073435;28;20685;-58
2022/07/19 09:11:14;;;;;;;6.03;2.92;;;39.90;89.00;;;;;;5055095;28;20201;-57
2022/07/19 09:13:37;;;;;;;6.90;2.92;;;40.10;86.20;;;;;;5053298;28;20266;-57
2022/07/19 09:16:06;;;;;;;4.90;2.60;;;39.90;85.30;;;;;;5067254;28;20196;-57
2022/07/19 09:18:36;;;;;;;11.95;2.83;;;40.20;85.80;;;;;;5074665;28;20219;-57
2022/07/19 09:21:08;;;;;;;4.93;2.70;;;39.90;85.40;;;;;;5074692;28;20282;-57
2022/07/19 09:23:39;;;;;;;7.35;3.17;;;39.90;85.70;;;;;;5073216;28;20611;-57
2022/07/19 09:26:07;;;;;;;6.65;3.25;;;39.70;82.00;;;;;;5074147;28;20195;-57
2022/07/19 09:28:37;;;;;;;4.90;2.85;;;39.60;83.40;;;;;;5074469;28;20715;-57
2022/07/19 09:31:07;;;;;;;10.15;3.17;;;40.00;81.80;;;;;;5074416;28;20200;-57
2022/07/19 09:33:36;;;;;;;7.25;2.85;;;39.90;79.10;;;;;;5074213;28;20274;-57
2022/07/19 09:36:13;;;;;;;9.75;3.35;;;39.80;80.60;;;;;;5073445;28;20279;-57
2022/07/19 09:38:43;;;;;;;6.78;2.83;;;40.40;80.60;;;;;;5073762;28;20278;-57
2022/07/19 09:41:14;;;;;;;7.03;3.13;;;40.90;80.00;;;;;;5073434;28;20200;-57
2022/07/19 09:43:53;;;;;;;5.85;2.78;;;41.00;77.70;;;;;;5073344;28;20223;-57
2022/07/19 09:46:31;;;;;;;7.63;3.13;;;40.90;76.50;;;;;;5073138;28;20246;-57
2022/07/19 09:49:05;;;;;;;10.50;3.03;;;40.70;75.90;;;;;;5073371;28;20245;-58
2022/07/19 09:51:37;;;;;;;6.50;2.72;;;40.70;75.60;;;;;;5073219;28;20592;-57
2022/07/19 09:54:07;;;;;;;8.07;3.00;;;40.50;74.90;;;;;;5073841;28;20270;-58
2022/07/19 09:56:39;;;;;;;11.18;2.83;;;40.30;74.20;;;;;;5073916;28;20199;-57
2022/07/19 09:59:08;;;;;;;10.07;2.78;;;40.20;75.70;;;;;;5072346;28;20246;-57
2022/07/19 10:01:37;;;;;;;6.80;2.60;;;40.30;74.00;;;;;;5073240;28;20283;-57
2022/07/19 10:04:44;;;;;;;7.22;2.70;;;40.10;72.60;;;;;;5073635;28;20191;-57
2022/07/19 10:07:52;;;;;;;4.22;2.67;;;40.30;73.40;;;;;;5073302;28;20250;-58
2022/07/19 10:10:22;;;;;;;8.45;2.95;;;40.60;72.70;;;;;;5072358;28;20192;-57
2022/07/19 10:12:52;;;;;;;3.50;2.85;;;40.40;72.80;;;;;;5072078;28;20240;-57
2022/07/19 10:15:21;;;;;;;5.03;2.63;;;40.60;74.70;;;;;;5072035;28;20192;-57
2022/07/19 10:18:02;;;;;;;8.02;2.40;;;40.80;72.60;;;;;;5073522;28;20200;-57
2022/07/19 10:20:31;;;;;;;6.43;2.97;;;40.70;72.20;;;;;;5073434;28;20219;-58
2022/07/19 10:23:04;;;;;;;4.45;2.40;;;40.70;72.00;;;;;;5070083;28;20284;-58
2022/07/19 10:25:44;;;;;;;8.25;2.90;;;40.60;71.60;;;;;;5052366;28;20196;-57
2022/07/19 10:28:33;;;;;;;7.82;2.88;;;40.80;72.10;;;;;;5060086;28;20744;-57
2022/07/19 10:31:30;;;;;;;7.70;2.65;;;40.90;72.60;;;;;;5073151;28;20208;-57
2022/07/19 10:34:01;;;;;;;5.15;2.95;;;40.50;70.80;;;;;;5073133;28;20204;-57
2022/07/19 10:36:39;;;;;;;7.95;2.50;;;40.20;70.70;;;;;;5073336;28;20758;-57
2022/07/19 10:39:29;;;;;;;6.72;2.60;;;39.90;69.50;;;;;;5073033;28;20713;-57
2022/07/19 10:42:18;;;;;;;5.15;2.72;;;39.80;71.30;;;;;;5073157;28;20192;-58
2022/07/19 10:45:12;;;;;;;3.53;2.55;;;40.30;68.20;;;;;;5073181;28;20707;-58
2022/07/19 10:48:00;;;;;;;4.80;2.30;;;40.70;69.50;;;;;;5066986;28;20276;-57
2022/07/19 10:50:47;;;;;;;6.55;2.80;;;40.20;69.80;;;;;;5067512;28;20261;-58
2022/07/19 10:53:56;;;;;;;10.32;2.63;;;40.40;68.60;;;;;;5072893;28;20219;-58
2022/07/19 10:56:30;;;;;;;9.25;2.58;;;40.60;68.70;;;;;;5072925;28;20192;-58
2022/07/19 10:59:00;;;;;;;6.53;2.50;;;40.80;67.60;;;;;;5072817;28;20216;-58
2022/07/19 11:01:30;;;;;;;2.65;1.90;;;40.80;67.40;;;;;;5073163;28;20579;-57
2022/07/19 11:04:23;;;;;;;3.88;2.38;;;40.90;66.90;;;;;;5058441;28;20283;-57
2022/07/19 11:06:52;;;;;;;5.63;2.40;;;40.80;66.60;;;;;;5072832;28;20236;-58
2022/07/19 11:09:22;;;;;;;3.95;2.60;;;40.90;66.90;;;;;;5073043;28;20196;-57
2022/07/19 11:11:54;;;;;;;6.38;2.20;;;41.10;68.90;;;;;;5072889;28;20531;-57
2022/07/19 11:14:22;;;;;;;8.82;2.25;;;41.10;67.70;;;;;;5072863;28;20219;-57
2022/07/19 11:17:01;;;;;;;10.35;2.58;;;41.30;66.30;;;;;;5072639;28;20291;-58
2022/07/19 11:19:29;;;;;;;9.38;2.58;;;41.20;65.60;;;;;;5072812;28;20204;-57
2022/07/19 11:22:02;;;;;;;3.67;2.40;;;41.00;64.80;;;;;;5072626;28;20192;-57
2022/07/19 11:24:30;;;;;;;6.88;2.40;;;40.60;64.90;;;;;;5072805;28;20226;-58
2022/07/19 11:27:04;;;;;;;5.57;2.20;;;40.30;65.70;;;;;;5071449;28;20234;-57
2022/07/19 11:29:53;;;;;;;7.07;2.00;;;40.40;64.20;;;;;;5068835;28;20288;-57
2022/07/19 11:32:23;;;;;;;6.90;2.55;;;40.70;67.00;;;;;;5066425;28;20287;-57
2022/07/19 11:34:56;;;;;;;2.90;2.20;;;40.50;64.00;;;;;;5072589;28;20200;-57
2022/07/19 11:37:27;;;;;;;6.40;2.47;;;40.30;62.90;;;;;;5072637;28;20267;-57
2022/07/19 11:39:57;;;;;;;6.07;2.28;;;40.30;63.50;;;;;;5054637;28;20731;-57
2022/07/19 11:42:38;;;;;;;3.80;2.65;;;40.40;64.10;;;;;;5072530;28;20242;-57
2022/07/19 11:45:28;;;;;;;8.73;2.45;;;40.60;65.20;;;;;;5072490;28;20666;-58
2022/07/19 11:47:58;;;;;;;11.63;2.65;;;40.20;64.80;;;;;;5072786;28;20580;-57
2022/07/19 11:50:27;;;;;;;8.82;2.80;;;40.50;63.50;;;;;;5071255;28;20287;-57
2022/07/19 11:52:58;;;;;;;4.28;2.83;;;40.50;63.60;;;;;;5072292;28;20215;-57
2022/07/19 11:55:28;;;;;;;4.47;2.45;;;40.20;61.70;;;;;;5072818;28;20560;-57
2022/07/19 11:57:58;;;;;;;6.25;2.83;;;39.90;65.00;;;;;;5072290;28;20275;-58
2022/07/19 12:00:27;;;;;;;11.05;2.53;;;39.90;63.60;;;;;;5057974;28;20287;-57
2022/07/19 12:02:58;;;;;;;4.18;2.38;;;39.70;63.10;;;;;;5072050;28;20257;-58
2022/07/19 12:05:27;;;;;;;8.68;2.67;;;39.70;64.40;;;;;;5070716;28;20196;-57
2022/07/19 12:07:59;;;;;;;5.35;2.60;;;39.80;63.30;;;;;;5070595;28;20324;-57
2022/07/19 12:10:42;;;;;;;6.68;2.67;;;39.70;62.60;;;;;;5072054;28;20192;-57
2022/07/19 12:13:13;;;;;;;6.05;2.50;;;39.60;63.50;;;;;;5071546;28;20742;-57
2022/07/19 12:15:53;;;;;;;6.95;2.60;;;39.40;64.00;;;;;;5074604;28;20257;-57
2022/07/19 12:18:23;;;;;;;8.40;2.75;;;39.10;65.00;;;;;;5074108;28;20203;-56
2022/07/19 12:21:15;;;;;;;4.75;3.13;;;38.90;63.50;;;;;;5073702;28;20226;-57
2022/07/19 12:23:44;;;;;;;9.43;3.10;;;38.90;63.80;;;;;;5062715;28;20192;-58
2022/07/19 12:26:12;;;;;;;4.82;3.05;;;38.70;63.80;;;;;;5075065;28;20210;-57
2022/07/19 12:29:16;;;;;;;5.43;3.20;;;38.60;64.10;;;;;;5075033;28;20198;-57
2022/07/19 12:31:45;;;;;;;5.30;3.13;;;38.40;64.40;;;;;;5074893;28;20286;-57
2022/07/19 12:34:14;;;;;;;5.82;3.00;;;38.40;64.40;;;;;;5073555;28;20284;-57
2022/07/19 12:36:45;;;;;;;4.05;2.97;;;38.50;64.00;;;;;;5074954;28;20203;-57
2022/07/19 12:39:21;;;;;;;5.82;2.90;;;38.40;63.50;;;;;;5074624;28;20699;-57
2022/07/19 12:42:05;;;;;;;3.45;2.65;;;38.50;66.50;;;;;;5074777;28;20192;-57
2022/07/19 12:44:35;;;;;;;3.92;2.92;;;38.60;65.40;;;;;;5094205;28;20195;-57
2022/07/19 12:47:04;;;;;;;5.13;2.97;;;38.60;63.60;;;;;;5074398;28;20204;-57
2022/07/19 12:49:55;;;;;;;5.20;2.75;;;38.70;65.60;;;;;;5073612;28;20202;-57
2022/07/19 12:52:34;;;;;;;9.60;3.55;;;38.90;64.60;;;;;;5072889;28;20286;-57
2022/07/19 12:55:02;;;;;;;3.72;3.08;;;38.60;64.90;;;;;;5060482;28;20225;-57
2022/07/19 12:57:33;;;;;;;3.65;2.90;;;38.50;64.80;;;;;;5054358;28;20200;-57
2022/07/19 13:00:04;;;;;;;3.60;3.05;;;38.70;65.50;;;;;;5083734;28;20203;-57
2022/07/19 13:02:33;;;;;;;6.93;3.15;;;38.80;66.40;;;;;;5086674;28;20204;-57
2022/07/19 13:05:01;;;;;;;6.72;3.28;;;38.90;65.20;;;;;;5073664;28;20252;-58
2022/07/19 13:07:30;;;;;;;3.25;3.00;;;38.90;63.50;;;;;;5074793;28;20255;-57